sensor_id;sensor_type;location;lat;lon;timestamp;temperature;humidity
28677;DHT22;15858;48.338;11.078;2023-09-30T00:01:26;17.70;99.90
28677;DHT22;15858;48.338;11.078;2023-09-30T00:03:53;17.70;99.90
28677;DHT22;15858;48.338;11.078;2023-09-30T00:06:19;17.70;99.90
28677;DHT22;15858;48.338;11.078;2023-09-30T00:08:46;17.70;99.90
28677;DHT22;15858;48.338;11.078;2023-09-30T00:11:15;17.60;99.90
28677;DHT22;15858;48.338;11.078;2023-09-30T00:13:42;17.60;99.90
28677;DHT22;15858;48.338;11.078;2023-09-30T00:16:08;17.50;99.90
28677;DHT22;15858;48.338;11.078;2023-09-30T00:18:35;17.50;99.90
28677;DHT22;15858;48.338;11.078;2023-09-30T00:21:02;17.50;99.90
28677;DHT22;15858;48.338;11.078;2023-09-30T00:23:29;17.50;99.90
28677;DHT22;15858;48.338;11.078;2023-09-30T00:25:55;17.50;99.90
28677;DHT22;15858;48.338;11.078;2023-09-30T00:28:22;17.50;99.90
28677;DHT22;15858;48.338;11.078;2023-09-30T00:30:49;17.50;99.90
28677;DHT22;15858;48.338;11.078;2023-09-30T00:33:15;17.50;99.90
28677;DHT22;15858;48.338;11.078;2023-09-30T00:35:42;17.40;99.90
28677;DHT22;15858;48.338;11.078;2023-09-30T00:38:09;17.40;99.90
28677;DHT22;15858;48.338;11.078;2023-09-30T00:40:36;17.30;99.90
28677;DHT22;15858;48.338;11.078;2023-09-30T00:43:02;17.40;99.90
28677;DHT22;15858;48.338;11.078;2023-09-30T00:45:30;17.40;99.90
28677;DHT22;15858;48.338;11.078;2023-09-30T00:47:57;17.30;99.90
28677;DHT22;15858;48.338;11.078;2023-09-30T00:50:24;17.30;99.90
28677;DHT22;15858;48.338;11.078;2023-09-30T00:52:51;17.30;99.90
28677;DHT22;15858;48.338;11.078;2023-09-30T00:55:19;17.40;99.90
28677;DHT22;15858;48.338;11.078;2023-09-30T00:57:46;17.30;99.90
28677;DHT22;15858;48.338;11.078;2023-09-30T01:00:13;17.30;99.90
28677;DHT22;15858;48.338;11.078;2023-09-30T01:02:40;17.40;99.90
28677;DHT22;15858;48.338;11.078;2023-09-30T01:05:07;17.30;99.90
28677;DHT22;15858;48.338;11.078;2023-09-30T01:07:34;17.30;99.90
28677;DHT22;15858;48.338;11.078;2023-09-30T01:10:02;17.30;99.90
28677;DHT22;15858;48.338;11.078;2023-09-30T01:12:28;17.30;99.90
28677;DHT22;15858;48.338;11.078;2023-09-30T01:14:58;17.30;99.90
28677;DHT22;15858;48.338;11.078;2023-09-30T01:17:25;17.30;99.90
28677;DHT22;15858;48.338;11.078;2023-09-30T01:19:52;17.30;99.90
28677;DHT22;15858;48.338;11.078;2023-09-30T01:22:18;17.20;99.90
28677;DHT22;15858;48.338;11.078;2023-09-30T01:24:45;17.20;99.90
28677;DHT22;15858;48.338;11.078;2023-09-30T01:27:12;17.20;99.90
28677;DHT22;15858;48.338;11.078;2023-09-30T01:29:38;17.20;99.90
28677;DHT22;15858;48.338;11.078;2023-09-30T01:32:06;17.20;99.90
28677;DHT22;15858;48.338;11.078;2023-09-30T01:34:32;17.20;99.90
28677;DHT22;15858;48.338;11.078;2023-09-30T01:36:59;17.20;99.90
28677;DHT22;15858;48.338;11.078;2023-09-30T01:39:26;17.20;99.90
28677;DHT22;15858;48.338;11.078;2023-09-30T01:41:52;17.20;99.90
28677;DHT22;15858;48.338;11.078;2023-09-30T01:44:19;17.10;99.90
28677;DHT22;15858;48.338;11.078;2023-09-30T01:46:46;17.10;99.90
28677;DHT22;15858;48.338;11.078;2023-09-30T01:49:12;17.00;99.90
28677;DHT22;15858;48.338;11.078;2023-09-30T01:51:39;17.10;99.90
28677;DHT22;15858;48.338;11.078;2023-09-30T01:54:06;17.10;99.90
28677;DHT22;15858;48.338;11.078;2023-09-30T01:56:32;17.00;99.90
28677;DHT22;15858;48.338;11.078;2023-09-30T01:58:59;17.00;99.90
28677;DHT22;15858;48.338;11.078;2023-09-30T02:01:26;17.00;99.90
28677;DHT22;15858;48.338;11.078;2023-09-30T02:03:53;16.90;99.90
28677;DHT22;15858;48.338;11.078;2023-09-30T02:06:20;17.00;99.90
28677;DHT22;15858;48.338;11.078;2023-09-30T02:08:46;16.90;99.90
28677;DHT22;15858;48.338;11.078;2023-09-30T02:11:15;16.90;99.90
28677;DHT22;15858;48.338;11.078;2023-09-30T02:13:42;16.90;99.90
28677;DHT22;15858;48.338;11.078;2023-09-30T02:16:13;16.90;99.90
28677;DHT22;15858;48.338;11.078;2023-09-30T02:18:41;16.90;99.90
28677;DHT22;15858;48.338;11.078;2023-09-30T02:21:08;16.90;99.90
28677;DHT22;15858;48.338;11.078;2023-09-30T02:23:35;16.90;99.90
28677;DHT22;15858;48.338;11.078;2023-09-30T02:26:02;16.90;99.90
28677;DHT22;15858;48.338;11.078;2023-09-30T02:28:29;16.80;99.90
28677;DHT22;15858;48.338;11.078;2023-09-30T02:30:56;16.80;99.90
28677;DHT22;15858;48.338;11.078;2023-09-30T02:33:22;16.70;99.90
28677;DHT22;15858;48.338;11.078;2023-09-30T02:35:49;16.60;99.90
28677;DHT22;15858;48.338;11.078;2023-09-30T02:38:16;16.60;99.90
28677;DHT22;15858;48.338;11.078;2023-09-30T02:40:44;16.70;99.90
28677;DHT22;15858;48.338;11.078;2023-09-30T02:43:10;16.60;99.90
28677;DHT22;15858;48.338;11.078;2023-09-30T02:45:37;16.60;99.90
28677;DHT22;15858;48.338;11.078;2023-09-30T02:48:04;16.70;99.90
28677;DHT22;15858;48.338;11.078;2023-09-30T02:50:31;16.70;99.90
28677;DHT22;15858;48.338;11.078;2023-09-30T02:52:57;16.70;99.90
28677;DHT22;15858;48.338;11.078;2023-09-30T02:55:24;16.60;99.90
28677;DHT22;15858;48.338;11.078;2023-09-30T02:57:51;16.60;99.90
28677;DHT22;15858;48.338;11.078;2023-09-30T03:00:17;16.60;99.90
28677;DHT22;15858;48.338;11.078;2023-09-30T03:02:44;16.60;99.90
28677;DHT22;15858;48.338;11.078;2023-09-30T03:05:11;16.60;99.90
28677;DHT22;15858;48.338;11.078;2023-09-30T03:07:37;16.60;99.90
28677;DHT22;15858;48.338;11.078;2023-09-30T03:10:04;16.60;99.90
28677;DHT22;15858;48.338;11.078;2023-09-30T03:12:31;16.60;99.90
28677;DHT22;15858;48.338;11.078;2023-09-30T03:14:58;16.60;99.90
28677;DHT22;15858;48.338;11.078;2023-09-30T03:17:25;16.60;99.90
28677;DHT22;15858;48.338;11.078;2023-09-30T03:19:51;16.60;99.90
28677;DHT22;15858;48.338;11.078;2023-09-30T03:22:18;16.50;99.90
28677;DHT22;15858;48.338;11.078;2023-09-30T03:24:44;16.60;99.90
28677;DHT22;15858;48.338;11.078;2023-09-30T03:27:11;16.60;99.90
28677;DHT22;15858;48.338;11.078;2023-09-30T03:29:38;16.60;99.90
28677;DHT22;15858;48.338;11.078;2023-09-30T03:32:05;16.60;99.90
28677;DHT22;15858;48.338;11.078;2023-09-30T03:34:33;16.50;99.90
28677;DHT22;15858;48.338;11.078;2023-09-30T03:37:00;16.50;99.90
28677;DHT22;15858;48.338;11.078;2023-09-30T03:39:27;16.60;99.90
28677;DHT22;15858;48.338;11.078;2023-09-30T03:41:55;16.50;99.90
28677;DHT22;15858;48.338;11.078;2023-09-30T03:44:22;16.50;99.90
28677;DHT22;15858;48.338;11.078;2023-09-30T03:46:51;16.50;99.90
28677;DHT22;15858;48.338;11.078;2023-09-30T03:49:18;16.40;99.90
28677;DHT22;15858;48.338;11.078;2023-09-30T03:51:45;16.50;99.90
28677;DHT22;15858;48.338;11.078;2023-09-30T03:54:12;16.50;99.90
28677;DHT22;15858;48.338;11.078;2023-09-30T03:57:03;16.40;99.90
28677;DHT22;15858;48.338;11.078;2023-09-30T03:59:30;16.40;99.90
28677;DHT22;15858;48.338;11.078;2023-09-30T04:01:56;16.40;99.90
28677;DHT22;15858;48.338;11.078;2023-09-30T04:04:23;16.40;99.90
28677;DHT22;15858;48.338;11.078;2023-09-30T04:06:50;16.30;99.90
28677;DHT22;15858;48.338;11.078;2023-09-30T04:09:17;16.30;99.90
28677;DHT22;15858;48.338;11.078;2023-09-30T04:11:44;16.40;99.90
28677;DHT22;15858;48.338;11.078;2023-09-30T04:14:11;16.30;99.90
28677;DHT22;15858;48.338;11.078;2023-09-30T04:16:37;16.40;99.90
28677;DHT22;15858;48.338;11.078;2023-09-30T04:19:04;16.30;99.90
28677;DHT22;15858;48.338;11.078;2023-09-30T04:21:31;16.30;99.90
28677;DHT22;15858;48.338;11.078;2023-09-30T04:23:57;16.40;99.90
28677;DHT22;15858;48.338;11.078;2023-09-30T04:26:25;16.40;99.90
28677;DHT22;15858;48.338;11.078;2023-09-30T04:28:51;16.40;99.90
28677;DHT22;15858;48.338;11.078;2023-09-30T04:31:19;16.30;99.90
28677;DHT22;15858;48.338;11.078;2023-09-30T04:33:46;16.30;99.90
28677;DHT22;15858;48.338;11.078;2023-09-30T04:36:12;16.40;99.90
28677;DHT22;15858;48.338;11.078;2023-09-30T04:38:39;16.30;99.90
28677;DHT22;15858;48.338;11.078;2023-09-30T04:41:06;16.20;99.90
28677;DHT22;15858;48.338;11.078;2023-09-30T04:43:33;16.20;99.90
28677;DHT22;15858;48.338;11.078;2023-09-30T04:46:00;16.20;99.90
28677;DHT22;15858;48.338;11.078;2023-09-30T04:48:26;16.20;99.90
28677;DHT22;15858;48.338;11.078;2023-09-30T04:50:53;16.10;99.90
28677;DHT22;15858;48.338;11.078;2023-09-30T04:53:20;16.10;99.90
28677;DHT22;15858;48.338;11.078;2023-09-30T04:55:46;16.00;99.90
28677;DHT22;15858;48.338;11.078;2023-09-30T04:58:13;16.00;99.90
28677;DHT22;15858;48.338;11.078;2023-09-30T05:00:40;16.00;99.90
28677;DHT22;15858;48.338;11.078;2023-09-30T05:03:06;16.00;99.90
28677;DHT22;15858;48.338;11.078;2023-09-30T05:05:33;15.90;99.90
28677;DHT22;15858;48.338;11.078;2023-09-30T05:08:00;15.90;99.90
28677;DHT22;15858;48.338;11.078;2023-09-30T05:10:26;16.00;99.90
28677;DHT22;15858;48.338;11.078;2023-09-30T05:12:53;15.90;99.90
28677;DHT22;15858;48.338;11.078;2023-09-30T05:15:20;15.90;99.90
28677;DHT22;15858;48.338;11.078;2023-09-30T05:17:48;15.80;99.90
28677;DHT22;15858;48.338;11.078;2023-09-30T05:20:16;15.80;99.90
28677;DHT22;15858;48.338;11.078;2023-09-30T05:22:43;15.80;99.90
28677;DHT22;15858;48.338;11.078;2023-09-30T05:25:10;15.80;99.90
28677;DHT22;15858;48.338;11.078;2023-09-30T05:27:36;15.70;99.90
28677;DHT22;15858;48.338;11.078;2023-09-30T05:30:05;15.70;99.90
28677;DHT22;15858;48.338;11.078;2023-09-30T05:32:32;15.70;99.90
28677;DHT22;15858;48.338;11.078;2023-09-30T05:34:58;15.70;99.90
28677;DHT22;15858;48.338;11.078;2023-09-30T05:37:25;15.70;99.90
28677;DHT22;15858;48.338;11.078;2023-09-30T05:39:52;15.60;99.90
28677;DHT22;15858;48.338;11.078;2023-09-30T05:42:19;15.80;99.90
28677;DHT22;15858;48.338;11.078;2023-09-30T05:44:45;15.80;99.90
28677;DHT22;15858;48.338;11.078;2023-09-30T05:47:12;15.80;99.90
28677;DHT22;15858;48.338;11.078;2023-09-30T05:49:39;15.80;99.90
28677;DHT22;15858;48.338;11.078;2023-09-30T05:52:05;15.80;99.90
28677;DHT22;15858;48.338;11.078;2023-09-30T05:54:32;15.80;99.90
28677;DHT22;15858;48.338;11.078;2023-09-30T05:56:59;15.80;99.90
28677;DHT22;15858;48.338;11.078;2023-09-30T05:59:25;15.80;99.90
28677;DHT22;15858;48.338;11.078;2023-09-30T06:01:52;15.80;99.90
28677;DHT22;15858;48.338;11.078;2023-09-30T06:04:19;15.80;99.90
28677;DHT22;15858;48.338;11.078;2023-09-30T06:06:45;15.80;99.90
28677;DHT22;15858;48.338;11.078;2023-09-30T06:09:12;15.70;99.90
28677;DHT22;15858;48.338;11.078;2023-09-30T06:11:39;15.80;99.90
28677;DHT22;15858;48.338;11.078;2023-09-30T06:14:05;15.80;99.90
28677;DHT22;15858;48.338;11.078;2023-09-30T06:16:33;15.90;99.90
28677;DHT22;15858;48.338;11.078;2023-09-30T06:19:00;16.00;99.90
28677;DHT22;15858;48.338;11.078;2023-09-30T06:21:26;16.00;99.90
28677;DHT22;15858;48.338;11.078;2023-09-30T06:23:53;16.00;99.90
28677;DHT22;15858;48.338;11.078;2023-09-30T06:26:20;15.90;99.90
28677;DHT22;15858;48.338;11.078;2023-09-30T06:28:47;15.90;99.90
28677;DHT22;15858;48.338;11.078;2023-09-30T06:31:14;15.90;99.90
28677;DHT22;15858;48.338;11.078;2023-09-30T06:33:41;16.00;99.90
28677;DHT22;15858;48.338;11.078;2023-09-30T06:36:11;16.00;99.90
28677;DHT22;15858;48.338;11.078;2023-09-30T06:38:38;16.00;99.90
28677;DHT22;15858;48.338;11.078;2023-09-30T06:41:05;16.10;99.90
28677;DHT22;15858;48.338;11.078;2023-09-30T06:43:33;16.10;99.90
28677;DHT22;15858;48.338;11.078;2023-09-30T06:45:59;16.20;99.90
28677;DHT22;15858;48.338;11.078;2023-09-30T06:48:26;16.20;99.90
28677;DHT22;15858;48.338;11.078;2023-09-30T06:50:53;16.30;99.90
28677;DHT22;15858;48.338;11.078;2023-09-30T06:53:19;16.30;99.90
28677;DHT22;15858;48.338;11.078;2023-09-30T06:55:46;16.40;99.90
28677;DHT22;15858;48.338;11.078;2023-09-30T06:58:13;16.40;99.90
28677;DHT22;15858;48.338;11.078;2023-09-30T07:00:43;16.40;99.90
28677;DHT22;15858;48.338;11.078;2023-09-30T07:03:10;16.50;99.90
28677;DHT22;15858;48.338;11.078;2023-09-30T07:05:37;16.50;99.90
28677;DHT22;15858;48.338;11.078;2023-09-30T07:08:04;16.50;99.90
28677;DHT22;15858;48.338;11.078;2023-09-30T07:10:30;16.60;99.90
28677;DHT22;15858;48.338;11.078;2023-09-30T07:12:57;16.60;99.90
28677;DHT22;15858;48.338;11.078;2023-09-30T07:15:24;16.80;99.90
28677;DHT22;15858;48.338;11.078;2023-09-30T07:17:50;16.90;99.90
28677;DHT22;15858;48.338;11.078;2023-09-30T07:20:17;16.90;99.90
28677;DHT22;15858;48.338;11.078;2023-09-30T07:22:44;16.90;99.90
28677;DHT22;15858;48.338;11.078;2023-09-30T07:25:24;16.80;99.90
28677;DHT22;15858;48.338;11.078;2023-09-30T07:27:51;16.80;99.90
28677;DHT22;15858;48.338;11.078;2023-09-30T07:30:18;16.80;99.90
28677;DHT22;15858;48.338;11.078;2023-09-30T07:32:45;16.70;99.90
28677;DHT22;15858;48.338;11.078;2023-09-30T07:35:14;16.70;99.90
28677;DHT22;15858;48.338;11.078;2023-09-30T07:37:41;16.70;99.90
28677;DHT22;15858;48.338;11.078;2023-09-30T07:40:09;16.80;99.90
28677;DHT22;15858;48.338;11.078;2023-09-30T07:42:36;16.80;99.90
28677;DHT22;15858;48.338;11.078;2023-09-30T07:45:03;16.90;99.90
28677;DHT22;15858;48.338;11.078;2023-09-30T07:47:30;16.90;99.90
28677;DHT22;15858;48.338;11.078;2023-09-30T07:49:57;17.10;99.90
28677;DHT22;15858;48.338;11.078;2023-09-30T07:52:25;17.00;99.90
28677;DHT22;15858;48.338;11.078;2023-09-30T07:54:51;17.00;99.90
28677;DHT22;15858;48.338;11.078;2023-09-30T07:57:18;17.20;99.90
28677;DHT22;15858;48.338;11.078;2023-09-30T07:59:45;17.30;99.90
28677;DHT22;15858;48.338;11.078;2023-09-30T08:02:11;17.30;99.90
28677;DHT22;15858;48.338;11.078;2023-09-30T08:04:38;17.40;99.90
28677;DHT22;15858;48.338;11.078;2023-09-30T08:07:05;17.40;99.90
28677;DHT22;15858;48.338;11.078;2023-09-30T08:09:31;17.70;99.90
28677;DHT22;15858;48.338;11.078;2023-09-30T08:11:58;17.60;99.90
28677;DHT22;15858;48.338;11.078;2023-09-30T08:14:25;17.80;99.90
28677;DHT22;15858;48.338;11.078;2023-09-30T08:16:51;18.00;99.90
28677;DHT22;15858;48.338;11.078;2023-09-30T08:19:18;17.90;99.90
28677;DHT22;15858;48.338;11.078;2023-09-30T08:21:45;18.00;99.90
28677;DHT22;15858;48.338;11.078;2023-09-30T08:24:12;18.00;99.90
28677;DHT22;15858;48.338;11.078;2023-09-30T08:26:38;18.10;99.90
28677;DHT22;15858;48.338;11.078;2023-09-30T08:29:05;18.10;99.90
28677;DHT22;15858;48.338;11.078;2023-09-30T08:31:32;18.20;99.90
28677;DHT22;15858;48.338;11.078;2023-09-30T08:33:58;18.30;99.90
28677;DHT22;15858;48.338;11.078;2023-09-30T08:36:25;18.20;99.90
28677;DHT22;15858;48.338;11.078;2023-09-30T08:38:52;18.10;99.90
28677;DHT22;15858;48.338;11.078;2023-09-30T08:41:31;18.10;99.90
28677;DHT22;15858;48.338;11.078;2023-09-30T08:44:00;18.10;99.90
28677;DHT22;15858;48.338;11.078;2023-09-30T08:46:32;18.10;99.90
28677;DHT22;15858;48.338;11.078;2023-09-30T08:49:03;18.30;99.90
28677;DHT22;15858;48.338;11.078;2023-09-30T08:51:31;18.20;99.90
28677;DHT22;15858;48.338;11.078;2023-09-30T08:53:59;18.20;99.90
28677;DHT22;15858;48.338;11.078;2023-09-30T08:56:31;18.40;99.90
28677;DHT22;15858;48.338;11.078;2023-09-30T08:58:59;18.50;99.90
28677;DHT22;15858;48.338;11.078;2023-09-30T09:01:27;18.40;99.90
28677;DHT22;15858;48.338;11.078;2023-09-30T09:03:55;18.40;99.90
28677;DHT22;15858;48.338;11.078;2023-09-30T09:06:24;18.40;99.90
28677;DHT22;15858;48.338;11.078;2023-09-30T09:08:51;18.50;99.90
28677;DHT22;15858;48.338;11.078;2023-09-30T09:11:18;18.60;99.90
28677;DHT22;15858;48.338;11.078;2023-09-30T09:16:12;18.60;99.90
28677;DHT22;15858;48.338;11.078;2023-09-30T09:18:40;18.50;99.90
28677;DHT22;15858;48.338;11.078;2023-09-30T09:21:20;18.70;99.90
28677;DHT22;15858;48.338;11.078;2023-09-30T09:23:49;18.70;99.90
28677;DHT22;15858;48.338;11.078;2023-09-30T09:26:29;18.80;99.90
28677;DHT22;15858;48.338;11.078;2023-09-30T09:29:01;18.90;99.90
28677;DHT22;15858;48.338;11.078;2023-09-30T09:31:29;18.90;99.90
28677;DHT22;15858;48.338;11.078;2023-09-30T09:33:57;19.00;99.90
28677;DHT22;15858;48.338;11.078;2023-09-30T09:36:44;19.20;99.90
28677;DHT22;15858;48.338;11.078;2023-09-30T09:39:12;19.00;99.90
28677;DHT22;15858;48.338;11.078;2023-09-30T09:41:52;19.20;99.90
28677;DHT22;15858;48.338;11.078;2023-09-30T09:44:20;19.40;99.90
28677;DHT22;15858;48.338;11.078;2023-09-30T09:46:47;19.30;99.90
28677;DHT22;15858;48.338;11.078;2023-09-30T09:49:16;19.20;99.90
28677;DHT22;15858;48.338;11.078;2023-09-30T09:51:45;19.20;99.90
28677;DHT22;15858;48.338;11.078;2023-09-30T09:54:13;19.40;99.90
28677;DHT22;15858;48.338;11.078;2023-09-30T09:56:42;19.40;99.90
28677;DHT22;15858;48.338;11.078;2023-09-30T09:59:12;19.70;99.90
28677;DHT22;15858;48.338;11.078;2023-09-30T10:01:40;19.60;99.90
28677;DHT22;15858;48.338;11.078;2023-09-30T10:04:07;19.80;99.90
28677;DHT22;15858;48.338;11.078;2023-09-30T10:06:34;19.90;99.90
28677;DHT22;15858;48.338;11.078;2023-09-30T10:09:02;20.10;99.90
28677;DHT22;15858;48.338;11.078;2023-09-30T10:11:29;20.30;99.90
28677;DHT22;15858;48.338;11.078;2023-09-30T10:13:57;20.40;99.90
28677;DHT22;15858;48.338;11.078;2023-09-30T10:19:13;20.50;99.90
28677;DHT22;15858;48.338;11.078;2023-09-30T10:24:45;20.80;99.90
28677;DHT22;15858;48.338;11.078;2023-09-30T10:35:18;20.30;99.90
28677;DHT22;15858;48.338;11.078;2023-09-30T10:37:46;20.30;99.90
28677;DHT22;15858;48.338;11.078;2023-09-30T10:40:27;20.20;99.90
28677;DHT22;15858;48.338;11.078;2023-09-30T10:42:53;20.30;99.90
28677;DHT22;15858;48.338;11.078;2023-09-30T10:50:57;21.10;99.90
28677;DHT22;15858;48.338;11.078;2023-09-30T10:53:24;21.20;99.90
28677;DHT22;15858;48.338;11.078;2023-09-30T10:55:58;21.30;99.90
28677;DHT22;15858;48.338;11.078;2023-09-30T11:01:07;21.00;99.90
28677;DHT22;15858;48.338;11.078;2023-09-30T11:03:34;21.10;99.90
28677;DHT22;15858;48.338;11.078;2023-09-30T11:06:03;21.20;99.90
28677;DHT22;15858;48.338;11.078;2023-09-30T11:08:40;21.40;99.90
28677;DHT22;15858;48.338;11.078;2023-09-30T11:11:10;21.50;99.90
28677;DHT22;15858;48.338;11.078;2023-09-30T11:13:37;21.70;99.90
28677;DHT22;15858;48.338;11.078;2023-09-30T11:16:04;21.70;99.90
28677;DHT22;15858;48.338;11.078;2023-09-30T11:18:32;21.80;99.90
28677;DHT22;15858;48.338;11.078;2023-09-30T11:21:07;21.90;99.90
28677;DHT22;15858;48.338;11.078;2023-09-30T11:23:34;22.00;99.90
28677;DHT22;15858;48.338;11.078;2023-09-30T11:26:01;22.00;99.90
28677;DHT22;15858;48.338;11.078;2023-09-30T11:28:39;21.80;99.90
28677;DHT22;15858;48.338;11.078;2023-09-30T11:31:11;22.00;99.90
28677;DHT22;15858;48.338;11.078;2023-09-30T11:33:51;22.20;99.90
28677;DHT22;15858;48.338;11.078;2023-09-30T11:36:20;22.40;99.90
28677;DHT22;15858;48.338;11.078;2023-09-30T11:38:48;22.60;99.90
28677;DHT22;15858;48.338;11.078;2023-09-30T11:41:16;22.80;99.90
28677;DHT22;15858;48.338;11.078;2023-09-30T11:44:20;22.80;99.90
28677;DHT22;15858;48.338;11.078;2023-09-30T11:46:48;22.90;99.90
28677;DHT22;15858;48.338;11.078;2023-09-30T11:49:38;23.00;99.90
28677;DHT22;15858;48.338;11.078;2023-09-30T11:52:13;23.10;99.90
28677;DHT22;15858;48.338;11.078;2023-09-30T11:54:42;23.20;99.90
28677;DHT22;15858;48.338;11.078;2023-09-30T11:57:10;23.30;99.90
28677;DHT22;15858;48.338;11.078;2023-09-30T11:59:38;23.20;99.90
28677;DHT22;15858;48.338;11.078;2023-09-30T12:02:05;23.50;99.90
28677;DHT22;15858;48.338;11.078;2023-09-30T12:04:41;23.50;99.90
28677;DHT22;15858;48.338;11.078;2023-09-30T12:07:08;23.60;99.90
28677;DHT22;15858;48.338;11.078;2023-09-30T12:09:35;23.50;99.90
28677;DHT22;15858;48.338;11.078;2023-09-30T12:12:02;23.50;99.50
28677;DHT22;15858;48.338;11.078;2023-09-30T12:14:29;23.10;99.50
28677;DHT22;15858;48.338;11.078;2023-09-30T12:16:56;23.40;99.90
28677;DHT22;15858;48.338;11.078;2023-09-30T12:19:23;23.40;99.90
28677;DHT22;15858;48.338;11.078;2023-09-30T12:21:50;23.20;99.90
28677;DHT22;15858;48.338;11.078;2023-09-30T12:24:17;22.90;99.30
28677;DHT22;15858;48.338;11.078;2023-09-30T12:26:45;22.70;99.90
28677;DHT22;15858;48.338;11.078;2023-09-30T12:29:11;22.30;99.90
28677;DHT22;15858;48.338;11.078;2023-09-30T12:31:38;22.00;99.90
28677;DHT22;15858;48.338;11.078;2023-09-30T12:34:18;22.20;99.90
28677;DHT22;15858;48.338;11.078;2023-09-30T12:36:46;22.30;99.90
28677;DHT22;15858;48.338;11.078;2023-09-30T12:39:12;22.30;99.90
28677;DHT22;15858;48.338;11.078;2023-09-30T12:41:40;22.70;99.90
28677;DHT22;15858;48.338;11.078;2023-09-30T12:44:09;23.00;99.90
28677;DHT22;15858;48.338;11.078;2023-09-30T12:46:37;22.90;99.90
28677;DHT22;15858;48.338;11.078;2023-09-30T12:49:04;23.20;99.90
28677;DHT22;15858;48.338;11.078;2023-09-30T12:51:32;22.90;99.70
28677;DHT22;15858;48.338;11.078;2023-09-30T12:54:00;22.60;99.90
28677;DHT22;15858;48.338;11.078;2023-09-30T12:56:27;22.60;99.90
28677;DHT22;15858;48.338;11.078;2023-09-30T12:58:54;22.70;99.90
28677;DHT22;15858;48.338;11.078;2023-09-30T13:01:20;22.30;99.90
28677;DHT22;15858;48.338;11.078;2023-09-30T13:03:48;22.30;99.90
28677;DHT22;15858;48.338;11.078;2023-09-30T13:06:16;21.90;99.90
28677;DHT22;15858;48.338;11.078;2023-09-30T13:08:42;21.70;99.90
28677;DHT22;15858;48.338;11.078;2023-09-30T13:11:10;21.60;99.90
28677;DHT22;15858;48.338;11.078;2023-09-30T13:13:36;21.40;99.90
28677;DHT22;15858;48.338;11.078;2023-09-30T13:16:03;21.40;99.90
28677;DHT22;15858;48.338;11.078;2023-09-30T13:18:30;21.40;99.90
28677;DHT22;15858;48.338;11.078;2023-09-30T13:20:57;21.40;99.90
28677;DHT22;15858;48.338;11.078;2023-09-30T13:23:23;21.60;99.90
28677;DHT22;15858;48.338;11.078;2023-09-30T13:25:50;21.70;99.90
28677;DHT22;15858;48.338;11.078;2023-09-30T13:28:17;21.90;99.90
28677;DHT22;15858;48.338;11.078;2023-09-30T13:30:44;22.10;99.90
28677;DHT22;15858;48.338;11.078;2023-09-30T13:33:10;22.20;99.90
28677;DHT22;15858;48.338;11.078;2023-09-30T13:35:37;22.20;99.90
28677;DHT22;15858;48.338;11.078;2023-09-30T13:38:04;22.30;99.90
28677;DHT22;15858;48.338;11.078;2023-09-30T13:40:31;22.20;99.90
28677;DHT22;15858;48.338;11.078;2023-09-30T13:42:57;22.10;99.90
28677;DHT22;15858;48.338;11.078;2023-09-30T13:45:24;22.00;99.90
28677;DHT22;15858;48.338;11.078;2023-09-30T13:47:51;22.10;99.90
28677;DHT22;15858;48.338;11.078;2023-09-30T13:50:17;22.20;99.90
28677;DHT22;15858;48.338;11.078;2023-09-30T13:52:47;22.40;99.90
28677;DHT22;15858;48.338;11.078;2023-09-30T13:55:14;22.20;99.90
28677;DHT22;15858;48.338;11.078;2023-09-30T13:57:40;22.00;99.90
28677;DHT22;15858;48.338;11.078;2023-09-30T14:00:07;21.90;99.90
28677;DHT22;15858;48.338;11.078;2023-09-30T14:02:34;21.70;99.90
28677;DHT22;15858;48.338;11.078;2023-09-30T14:05:01;21.60;99.90
28677;DHT22;15858;48.338;11.078;2023-09-30T14:07:28;21.40;99.90
28677;DHT22;15858;48.338;11.078;2023-09-30T14:09:54;21.20;99.90
28677;DHT22;15858;48.338;11.078;2023-09-30T14:12:21;20.90;99.90
28677;DHT22;15858;48.338;11.078;2023-09-30T14:14:47;20.90;99.90
28677;DHT22;15858;48.338;11.078;2023-09-30T14:17:14;21.00;99.90
28677;DHT22;15858;48.338;11.078;2023-09-30T14:19:41;21.10;99.90
28677;DHT22;15858;48.338;11.078;2023-09-30T14:22:07;21.20;99.90
28677;DHT22;15858;48.338;11.078;2023-09-30T14:24:36;21.30;99.90
28677;DHT22;15858;48.338;11.078;2023-09-30T14:27:04;21.40;99.90
28677;DHT22;15858;48.338;11.078;2023-09-30T14:29:31;21.40;99.90
28677;DHT22;15858;48.338;11.078;2023-09-30T14:31:58;21.40;99.90
28677;DHT22;15858;48.338;11.078;2023-09-30T14:34:25;21.40;99.90
28677;DHT22;15858;48.338;11.078;2023-09-30T14:36:52;21.50;99.90
28677;DHT22;15858;48.338;11.078;2023-09-30T14:39:19;21.50;99.90
28677;DHT22;15858;48.338;11.078;2023-09-30T14:41:46;21.40;99.90
28677;DHT22;15858;48.338;11.078;2023-09-30T14:44:12;21.30;99.90
28677;DHT22;15858;48.338;11.078;2023-09-30T14:46:39;21.20;99.90
28677;DHT22;15858;48.338;11.078;2023-09-30T14:49:06;21.10;99.90
28677;DHT22;15858;48.338;11.078;2023-09-30T14:51:34;21.10;99.90
28677;DHT22;15858;48.338;11.078;2023-09-30T14:54:02;21.10;99.90
28677;DHT22;15858;48.338;11.078;2023-09-30T14:56:29;21.00;99.90
28677;DHT22;15858;48.338;11.078;2023-09-30T14:58:56;20.80;99.90
28677;DHT22;15858;48.338;11.078;2023-09-30T15:01:23;20.90;99.90
28677;DHT22;15858;48.338;11.078;2023-09-30T15:03:50;20.80;99.90
28677;DHT22;15858;48.338;11.078;2023-09-30T15:06:17;20.80;99.90
28677;DHT22;15858;48.338;11.078;2023-09-30T15:08:43;20.70;99.90
28677;DHT22;15858;48.338;11.078;2023-09-30T15:11:14;20.80;99.90
28677;DHT22;15858;48.338;11.078;2023-09-30T15:13:41;20.70;99.90
28677;DHT22;15858;48.338;11.078;2023-09-30T15:16:15;20.70;99.90
28677;DHT22;15858;48.338;11.078;2023-09-30T15:18:42;20.70;99.90
28677;DHT22;15858;48.338;11.078;2023-09-30T15:21:09;20.60;99.90
28677;DHT22;15858;48.338;11.078;2023-09-30T15:23:35;20.50;99.90
28677;DHT22;15858;48.338;11.078;2023-09-30T15:26:02;20.50;99.90
28677;DHT22;15858;48.338;11.078;2023-09-30T15:28:28;20.40;99.90
28677;DHT22;15858;48.338;11.078;2023-09-30T15:30:56;20.40;99.90
28677;DHT22;15858;48.338;11.078;2023-09-30T15:33:23;20.40;99.90
28677;DHT22;15858;48.338;11.078;2023-09-30T15:35:50;20.50;99.90
28677;DHT22;15858;48.338;11.078;2023-09-30T15:38:16;20.40;99.90
28677;DHT22;15858;48.338;11.078;2023-09-30T15:41:03;20.30;99.90
28677;DHT22;15858;48.338;11.078;2023-09-30T15:43:31;20.30;99.90